Time;durP1;ratioP1;P1;durP2;ratioP2;P2;SDS_P1;SDS_P2;PMS_P1;PMS_P2;Temp;Humidity;BMP_temperature;BMP_pressure;BME280_temperature;BME280_humidity;BME280_pressure;Samples;Min_cycle;Max_cycle;Signal;HPM_P1;HPM_P2
2022/09/05 00:00:13;;;;;;;28.10;24.67;;;23.10;73.30;;;;;;5018701;28;20418;-54
2022/09/05 00:03:01;;;;;;;28.95;24.65;;;23.10;72.90;;;;;;5074391;28;20024;-55
2022/09/05 00:05:53;;;;;;;28.13;25.13;;;23.10;72.90;;;;;;5074455;28;20047;-54
2022/09/05 00:08:41;;;;;;;26.70;22.73;;;23.10;72.80;;;;;;5047550;28;20021;-54
2022/09/05 00:11:15;;;;;;;25.60;23.00;;;23.00;73.00;;;;;;5074301;28;20643;-53
2022/09/05 00:14:18;;;;;;;28.63;25.42;;;23.00;73.20;;;;;;5056239;28;20602;-53
2022/09/05 00:17:05;;;;;;;29.40;26.33;;;23.00;73.40;;;;;;5072700;28;20394;-54
2022/09/05 00:19:44;;;;;;;27.52;24.92;;;22.90;73.30;;;;;;5074740;28;20064;-53
2022/09/05 00:22:15;;;;;;;29.58;26.48;;;22.90;73.20;;;;;;5074164;28;20099;-52
2022/09/05 00:25:03;;;;;;;27.27;24.15;;;22.90;73.40;;;;;;5074301;28;20032;-57
2022/09/05 00:27:52;;;;;;;26.83;24.15;;;22.90;73.60;;;;;;5074046;28;20021;-52
2022/09/05 00:30:19;;;;;;;27.75;24.90;;;22.90;74.20;;;;;;5062935;28;20045;-53
2022/09/05 00:33:08;;;;;;;28.48;24.73;;;22.80;73.80;;;;;;5074136;28;20506;-52
2022/09/05 00:36:01;;;;;;;26.67;23.83;;;22.80;74.20;;;;;;5074303;28;20024;-53
2022/09/05 00:38:28;;;;;;;25.45;23.02;;;22.80;74.30;;;;;;5074472;28;20025;-52
2022/09/05 00:41:06;;;;;;;26.42;23.73;;;22.70;74.20;;;;;;5073691;28;20434;-55
2022/09/05 00:43:45;;;;;;;27.33;23.85;;;22.70;74.60;;;;;;5074207;28;20078;-53
2022/09/05 00:46:21;;;;;;;27.90;24.85;;;22.70;74.90;;;;;;5073778;28;20559;-53
2022/09/05 00:49:20;;;;;;;26.02;23.48;;;22.60;75.00;;;;;;5055825;28;20524;-52
2022/09/05 00:52:11;;;;;;;28.75;24.58;;;22.60;75.00;;;;;;5073417;28;20032;-56
2022/09/05 00:55:04;;;;;;;27.52;23.48;;;22.60;75.00;;;;;;5073680;28;20415;-55
2022/09/05 00:57:53;;;;;;;25.98;23.45;;;22.60;76.10;;;;;;5073241;28;20028;-52
2022/09/05 01:00:23;;;;;;;26.23;23.52;;;22.60;75.70;;;;;;5073184;28;20025;-55
2022/09/05 01:03:22;;;;;;;26.38;23.70;;;22.50;75.30;;;;;;5073409;28;20109;-53
2022/09/05 01:06:03;;;;;;;28.00;24.83;;;22.60;76.20;;;;;;5073609;28;20112;-56
2022/09/05 01:09:02;;;;;;;29.20;23.70;;;22.60;75.80;;;;;;5072387;28;20039;-54
2022/09/05 01:11:36;;;;;;;26.02;23.10;;;22.60;75.80;;;;;;5066846;28;20028;-51
2022/09/05 01:14:30;;;;;;;25.42;22.77;;;22.50;75.80;;;;;;5055449;28;20090;-52
2022/09/05 01:17:17;;;;;;;25.58;21.50;;;22.60;76.40;;;;;;5073467;28;20398;-58
2022/09/05 01:19:49;;;;;;;24.55;22.17;;;22.50;76.50;;;;;;5065399;28;20033;-53
2022/09/05 01:23:18;;;;;;;25.13;20.48;;;22.50;76.60;;;;;;5072978;28;20029;-52
2022/09/05 01:25:47;;;;;;;23.50;21.02;;;22.50;77.30;;;;;;4991639;28;20042;-52
2022/09/05 01:28:12;;;;;;;22.58;20.45;;;22.40;76.60;;;;;;5043245;28;20033;-55
2022/09/05 01:30:50;;;;;;;27.33;20.60;;;22.40;76.80;;;;;;5055375;28;20028;-52
2022/09/05 01:33:42;;;;;;;25.83;21.27;;;22.40;77.10;;;;;;5073191;28;20033;-52
2022/09/05 01:36:44;;;;;;;24.48;21.27;;;22.50;77.80;;;;;;5073001;28;20028;-51
2022/09/05 01:39:34;;;;;;;23.80;19.80;;;22.40;77.60;;;;;;5057646;28;20028;-52
2022/09/05 01:42:25;;;;;;;22.75;20.42;;;22.40;77.80;;;;;;5073009;28;20028;-52
2022/09/05 01:45:17;;;;;;;24.40;20.02;;;22.30;77.80;;;;;;5073038;28;20458;-55
2022/09/05 01:47:48;;;;;;;24.85;21.33;;;22.40;77.70;;;;;;5072664;28;20050;-52
2022/09/05 01:50:31;;;;;;;23.65;20.38;;;22.30;78.10;;;;;;5053983;28;20047;-53
2022/09/05 01:53:24;;;;;;;22.70;20.30;;;22.30;77.80;;;;;;5072809;28;20020;-53
2022/09/05 01:56:29;;;;;;;25.10;21.02;;;22.30;78.20;;;;;;5072523;28;20423;-52
2022/09/05 01:59:40;;;;;;;26.42;22.83;;;22.30;78.80;;;;;;5054701;28;20473;-52
2022/09/05 02:02:29;;;;;;;21.95;19.60;;;22.20;79.10;;;;;;4976567;28;20062;-56
2022/09/05 02:05:13;;;;;;;24.80;22.20;;;22.20;79.10;;;;;;5050899;28;20024;-52
2022/09/05 02:08:05;;;;;;;24.65;20.60;;;22.10;79.20;;;;;;5072460;28;20035;-52
2022/09/05 02:11:07;;;;;;;24.92;22.30;;;22.20;79.40;;;;;;5068218;28;20113;-52
2022/09/05 02:13:32;;;;;;;20.65;18.50;;;22.10;79.30;;;;;;5069591;28;20024;-52
2022/09/05 02:15:58;;;;;;;22.38;20.00;;;22.10;79.10;;;;;;5054402;28;20034;-53
2022/09/05 02:18:51;;;;;;;24.70;20.43;;;22.20;79.00;;;;;;5072366;28;20039;-55
2022/09/05 02:21:32;;;;;;;25.80;20.88;;;22.20;79.30;;;;;;5060483;28;20118;-54
2022/09/05 02:24:12;;;;;;;22.88;20.48;;;22.20;79.70;;;;;;5068720;28;20181;-55
2022/09/05 02:26:52;;;;;;;22.77;19.02;;;22.20;79.80;;;;;;5072146;28;20048;-52
2022/09/05 02:29:29;;;;;;;22.23;19.90;;;22.10;80.00;;;;;;5072044;28;20028;-52
2022/09/05 02:32:20;;;;;;;26.30;19.33;;;22.10;80.00;;;;;;5071665;28;20035;-52
2022/09/05 02:34:53;;;;;;;22.00;19.83;;;22.10;79.90;;;;;;5054159;28;20036;-53
2022/09/05 02:37:37;;;;;;;21.20;18.98;;;22.10;79.90;;;;;;5071772;28;20025;-53
2022/09/05 02:40:03;;;;;;;23.85;21.48;;;22.10;80.00;;;;;;5071944;28;20029;-52
2022/09/05 02:42:43;;;;;;;24.05;21.40;;;22.10;80.00;;;;;;5086768;22;20055;-52
2022/09/05 02:45:41;;;;;;;22.35;19.98;;;22.20;80.20;;;;;;5034114;28;20025;-52
2022/09/05 02:48:18;;;;;;;22.85;18.92;;;22.20;80.00;;;;;;5052772;28;20059;-52
2022/09/05 02:50:59;;;;;;;22.52;19.10;;;22.20;80.10;;;;;;5066200;28;20032;-51
2022/09/05 02:53:26;;;;;;;24.02;19.25;;;22.20;79.90;;;;;;5066233;28;20040;-54
2022/09/05 02:56:10;;;;;;;21.50;19.25;;;22.20;80.00;;;;;;5061769;28;20025;-52
2022/09/05 02:58:37;;;;;;;23.88;20.02;;;;;;;;;;5070787;28;20123;-52
2022/09/05 03:01:13;;;;;;;22.25;19.48;;;;;;;;;;5048377;28;20028;-54
2022/09/05 03:03:51;;;;;;;22.75;20.45;;;;;;;;;;5067310;28;20451;-54
2022/09/05 03:06:17;;;;;;;;;;;;;;;;;;5070410;28;20386;-54
2022/09/05 03:08:43;;;;;;;22.25;20.08;;;;;;;;;;5070967;28;19995;-53
2022/09/05 03:11:10;;;;;;;23.70;20.52;;;;;;;;;;5069797;28;20040;-54
2022/09/05 03:13:39;;;;;;;24.85;21.25;;;;;;;;;;5054065;28;20029;-52
2022/09/05 03:16:24;;;;;;;22.33;19.30;;;;;;;;;;5068011;28;20039;-54
2022/09/05 03:18:53;;;;;;;22.77;19.10;;;;;;;;;;5049857;28;20033;-52
2022/09/05 03:21:19;;;;;;;21.10;18.83;;;;;;;;;;5071364;28;20021;-54
2022/09/05 03:23:48;;;;;;;21.50;19.25;;;;;;;;;;5066343;28;20044;-52
2022/09/05 03:26:33;;;;;;;23.27;20.83;;;;;;;;;;5071828;28;20621;-52
2022/09/05 03:28:59;;;;;;;22.27;20.20;;;;;;;;;;5058945;28;20037;-53
2022/09/05 03:31:37;;;;;;;24.23;19.20;;;;;;;;;;5050481;28;20537;-55
2022/09/05 03:34:22;;;;;;;24.33;20.30;;;;;;;;;;5058408;28;20052;-52
2022/09/05 03:37:01;;;;;;;24.00;20.70;;;;;;;;;;5071060;28;20033;-52
2022/09/05 03:39:39;;;;;;;22.67;20.27;;;;;;;;;;5053139;28;20021;-52
2022/09/05 03:42:05;;;;;;;22.08;19.92;;;;;;;;;;5050772;28;20040;-52
2022/09/05 03:44:40;;;;;;;23.92;19.42;;;;;;;;;;5051448;28;20033;-52
2022/09/05 03:47:12;;;;;;;23.08;20.77;;;;;;;;;;5051278;28;20121;-52
2022/09/05 03:49:51;;;;;;;23.20;20.80;;;;;;;;;;5051126;28;20036;-53
2022/09/05 03:52:17;;;;;;;24.27;20.63;;;;;;;;;;5044614;28;20507;-53
2022/09/05 03:54:49;;;;;;;33.00;20.05;;;;;;;;;;5067404;28;20067;-52
2022/09/05 03:57:32;;;;;;;25.98;20.00;;;;;;;;;;5034967;28;20044;-52
2022/09/05 04:00:01;;;;;;;26.40;21.15;;;;;;;;;;5051242;28;20037;-51
2022/09/05 04:02:29;;;;;;;21.75;19.40;;;;;;;;;;5032704;28;20049;-52
2022/09/05 04:05:04;;;;;;;25.42;21.00;;;;;;;;;;5051035;28;20071;-52
2022/09/05 04:07:33;;;;;;;23.67;21.15;;;;;;;;;;5051308;28;20024;-53
2022/09/05 04:10:18;;;;;;;21.00;19.05;;;;;;;;;;5051139;28;20293;-52
2022/09/05 04:12:49;;;;;;;22.75;20.45;;;;;;;;;;5050806;28;20394;-52
2022/09/05 04:15:26;;;;;;;27.55;21.77;;;;;;;;;;5051019;28;20032;-52
2022/09/05 04:17:56;;;;;;;23.73;20.20;;;;;;;;;;5033128;28;20032;-55
2022/09/05 04:20:33;;;;;;;23.27;20.75;;;;;;;;;;5033134;28;20032;-52
2022/09/05 04:23:14;;;;;;;24.75;22.05;;;;;;;;;;5033121;28;20028;-52
2022/09/05 04:25:53;;;;;;;22.50;20.20;;;;;;;;;;5050903;28;20025;-52
2022/09/05 04:28:26;;;;;;;27.40;22.58;;;;;;;;;;5050940;28;20025;-53
2022/09/05 04:30:54;;;;;;;26.85;24.00;;;;;;;;;;5032857;28;20402;-52
2022/09/05 04:33:29;;;;;;;25.45;22.92;;;;;;;;;;5050817;28;20052;-53
2022/09/05 04:36:01;;;;;;;24.55;21.35;;;;;;;;;;5051011;28;20166;-52
2022/09/05 04:38:38;;;;;;;22.77;20.50;;;;;;;;;;5050810;28;20021;-52
2022/09/05 04:41:08;;;;;;;24.20;21.50;;;;;;;;;;5032913;28;20115;-56
2022/09/05 04:43:37;;;;;;;24.35;21.02;;;;;;;;;;5051900;28;20426;-52
2022/09/05 04:46:09;;;;;;;27.80;23.40;;;;;;;;;;5054346;28;20025;-54
2022/09/05 04:48:50;;;;;;;26.98;24.08;;;;;;;;;;5054271;28;20123;-52
2022/09/05 04:51:28;;;;;;;28.25;24.45;;;;;;;;;;5054006;28;20064;-53
2022/09/05 04:54:13;;;;;;;28.42;23.42;;;;;;;;;;5054149;28;20032;-54
2022/09/05 04:56:43;;;;;;;26.25;22.20;;;;;;;;;;5054267;28;20376;-52
2022/09/05 04:59:22;;;;;;;28.83;25.20;;;;;;;;;;5054027;28;20478;-54
2022/09/05 05:02:12;;;;;;;27.90;25.13;;;;;;;;;;5053828;28;20272;-54
2022/09/05 05:04:38;;;;;;;28.50;24.25;;;;;;;;;;5016751;28;20048;-52
2022/09/05 05:07:04;;;;;;;25.67;23.13;;;;;;;;;;5054070;28;20047;-53
2022/09/05 05:09:33;;;;;;;29.03;25.47;;;;;;;;;;5053920;28;20029;-54
2022/09/05 05:12:03;;;;;;;24.63;21.98;;;;;;;;;;5053601;28;20025;-52
2022/09/05 05:14:42;;;;;;;27.02;22.27;;;;;;;;;;5053782;28;20065;-55
2022/09/05 05:17:12;;;;;;;25.05;22.08;;;;;;;;;;5035930;28;20564;-52
2022/09/05 05:19:44;;;;;;;24.95;22.33;;;;;;;;;;5054108;28;20057;-52
2022/09/05 05:22:16;;;;;;;28.27;22.75;;;;;;;;;;5053439;28;20028;-53
2022/09/05 05:24:46;;;;;;;26.52;23.70;;;;;;;;;;5053539;28;20048;-55
2022/09/05 05:27:15;;;;;;;29.10;23.70;;;;;;;;;;5053602;28;20036;-52
2022/09/05 05:29:48;;;;;;;27.20;24.45;;;;;;;;;;5053599;28;20021;-52
2022/09/05 05:32:18;;;;;;;26.13;23.50;;;;;;;;;;5053222;28;20033;-55
2022/09/05 05:34:47;;;;;;;25.55;22.45;;;;;;;;;;5053471;28;20079;-52
2022/09/05 05:37:33;;;;;;;26.08;23.20;;;;;;;;;;5053435;28;20476;-53
2022/09/05 05:40:09;;;;;;;26.50;23.73;;;;;;;;;;5053403;28;20025;-53
2022/09/05 05:42:40;;;;;;;23.60;21.27;;;;;;;;;;5053000;28;20120;-55
2022/09/05 05:45:15;;;;;;;25.58;21.58;;;;;;;;;;5053187;28;20018;-54
2022/09/05 05:47:42;;;;;;;24.73;22.08;;;;;;;;;;5053135;28;20574;-53
2022/09/05 05:50:17;;;;;;;29.60;22.58;;;;;;;;;;5053297;28;20052;-52
2022/09/05 05:53:04;;;;;;;25.77;21.58;;;;;;;;;;5052903;28;20368;-52
2022/09/05 05:55:49;;;;;;;27.90;22.33;;;;;;;;;;5038888;28;20032;-55
2022/09/05 05:58:21;;;;;;;24.13;21.58;;;;;;;;;;5035019;28;20036;-52
2022/09/05 06:00:53;;;;;;;27.40;20.83;;;;;;;;;;5052799;28;20052;-52
2022/09/05 06:03:37;;;;;;;24.02;21.63;;;;;;;;;;5052891;28;20059;-54
2022/09/05 06:06:22;;;;;;;23.23;20.70;;;;;;;;;;5052903;28;20039;-52
2022/09/05 06:09:01;;;;;;;24.77;22.13;;;;;;;;;;5034876;28;20036;-56
2022/09/05 06:11:33;;;;;;;23.98;21.27;;;;;;;;;;5052550;28;20029;-52
2022/09/05 06:13:59;;;;;;;24.10;21.52;;;;;;;;;;5052669;28;20063;-52
2022/09/05 06:16:37;;;;;;;22.53;20.20;;;;;;;;;;5052667;28;20065;-55
2022/09/05 06:19:09;;;;;;;22.90;19.35;;;;;;;;;;5052546;28;20056;-52
2022/09/05 06:21:53;;;;;;;19.73;17.92;;;;;;;;;;5052355;28;20029;-51
2022/09/05 06:24:38;;;;;;;21.67;18.70;;;;;;;;;;5052425;28;20096;-52
2022/09/05 06:27:22;;;;;;;21.08;17.50;;;;;;;;;;5052411;28;20100;-55
2022/09/05 06:29:48;;;;;;;21.33;18.20;;;;;;;;;;5052378;28;20025;-54
2022/09/05 06:32:35;;;;;;;20.70;18.53;;;;;;;;;;5052241;28;20467;-53
2022/09/05 06:35:04;;;;;;;21.15;18.95;;;;;;;;;;5052353;28;20098;-52
2022/09/05 06:37:49;;;;;;;20.83;18.63;;;;;;;;;;5052421;28;20036;-52
2022/09/05 06:40:23;;;;;;;21.98;19.50;;;;;;;;;;5052416;28;20403;-52
2022/09/05 06:43:04;;;;;;;21.83;19.58;;;;;;;;;;5051857;28;20091;-54
2022/09/05 06:45:49;;;;;;;24.30;19.02;;;;;;;;;;5052030;28;20045;-54
2022/09/05 06:48:18;;;;;;;19.25;17.20;;;;;;;;;;5052049;28;20079;-56
2022/09/05 06:50:47;;;;;;;21.77;17.65;;;;;;;;;;5051922;28;20475;-54
2022/09/05 06:53:16;;;;;;;19.23;17.25;;;;;;;;;;5052322;28;20029;-54
2022/09/05 06:56:01;;;;;;;21.42;18.92;;;;;;;;;;5034033;28;20028;-51
2022/09/05 06:58:41;;;;;;;20.70;17.50;;;22.20;79.90;;;;;;5051667;28;20029;-53
2022/09/05 07:01:08;;;;;;;19.02;16.83;;;23.80;78.80;;;;;;5033747;28;20025;-53
2022/09/05 07:04:08;;;;;;;18.27;16.33;;;23.80;78.00;;;;;;5051800;28;20028;-53
2022/09/05 07:07:35;;;;;;;19.58;16.63;;;23.90;77.30;;;;;;5051128;28;20440;-54
2022/09/05 07:10:27;;;;;;;18.08;16.15;;;24.00;77.00;;;;;;5011439;28;20036;-55
2022/09/05 07:13:15;;;;;;;19.90;15.77;;;24.10;77.30;;;;;;5051547;28;20258;-52
2022/09/05 07:16:04;;;;;;;17.33;15.68;;;24.10;76.80;;;;;;5051786;28;20029;-51
2022/09/05 07:19:10;;;;;;;17.70;15.50;;;24.20;76.70;;;;;;5051717;28;20062;-51
2022/09/05 07:21:51;;;;;;;16.90;12.82;;;24.40;76.50;;;;;;5028538;28;20072;-50
2022/09/05 07:24:21;;;;;;;15.15;13.02;;;24.40;75.20;;;;;;5051581;28;20024;-50
2022/09/05 07:26:48;;;;;;;15.13;13.60;;;24.50;75.00;;;;;;5033989;28;20434;-50
2022/09/05 07:29:21;;;;;;;19.75;12.13;;;24.50;74.90;;;;;;5051420;28;20392;-51
2022/09/05 07:31:51;;;;;;;14.38;12.88;;;24.50;74.80;;;;;;5033526;28;20029;-51
2022/09/05 07:34:27;;;;;;;13.55;11.95;;;24.60;74.90;;;;;;5033608;28;20048;-51
2022/09/05 07:37:00;;;;;;;14.38;10.80;;;24.70;74.90;;;;;;5051517;28;20033;-51
2022/09/05 07:39:36;;;;;;;14.65;11.18;;;24.80;74.90;;;;;;5051300;28;20530;-52
2022/09/05 07:42:07;;;;;;;15.85;11.07;;;24.80;74.60;;;;;;5051427;28;20037;-51
2022/09/05 07:44:40;;;;;;;11.98;10.77;;;24.90;74.80;;;;;;5051353;28;20557;-50
2022/09/05 07:47:21;;;;;;;12.93;11.65;;;24.90;74.60;;;;;;5051382;28;20519;-52
2022/09/05 07:49:48;;;;;;;18.63;10.95;;;25.00;74.50;;;;;;5051317;28;20032;-51
2022/09/05 07:52:20;;;;;;;14.27;10.77;;;25.10;74.60;;;;;;5033135;28;20035;-51
2022/09/05 07:54:51;;;;;;;11.30;9.82;;;25.10;74.00;;;;;;5051222;28;20060;-52
2022/09/05 07:57:21;;;;;;;12.02;9.73;;;25.20;73.70;;;;;;5051271;28;20029;-51
2022/09/05 07:59:50;;;;;;;10.70;9.60;;;25.30;73.60;;;;;;5033375;28;20032;-50
2022/09/05 08:02:16;;;;;;;14.23;10.18;;;25.40;73.00;;;;;;5050926;28;20028;-50
2022/09/05 08:04:42;;;;;;;18.00;10.40;;;25.40;73.00;;;;;;5051024;28;20029;-53
2022/09/05 08:07:24;;;;;;;14.33;9.03;;;25.60;73.00;;;;;;5051077;28;20132;-54
2022/09/05 08:10:15;;;;;;;13.48;10.15;;;25.70;71.60;;;;;;5051222;28;20021;-52
2022/09/05 08:12:49;;;;;;;13.02;10.38;;;25.80;70.70;;;;;;5050824;28;20506;-51
2022/09/05 08:15:24;;;;;;;11.18;10.15;;;25.90;70.20;;;;;;5051052;28;20518;-51
2022/09/05 08:17:53;;;;;;;12.25;9.60;;;;;;;;;;5052708;28;20029;-52
2022/09/05 08:20:38;;;;;;;10.77;9.68;;;26.20;68.70;;;;;;5055001;28;20017;-51
2022/09/05 08:23:22;;;;;;;10.32;9.30;;;26.20;68.40;;;;;;5054855;28;20029;-52
2022/09/05 08:25:51;;;;;;;11.57;9.85;;;26.30;68.60;;;;;;5036839;28;20071;-51
2022/09/05 08:28:27;;;;;;;15.23;10.05;;;26.40;67.90;;;;;;5054693;28;20471;-52
2022/09/05 08:31:05;;;;;;;11.25;10.05;;;26.50;67.50;;;;;;5054615;28;20296;-52
2022/09/05 08:33:34;;;;;;;10.93;8.63;;;26.50;68.30;;;;;;5054641;28;20400;-52
2022/09/05 08:36:16;;;;;;;12.25;9.50;;;26.60;67.60;;;;;;5054562;28;20479;-51
2022/09/05 08:38:43;;;;;;;12.05;8.95;;;26.60;67.40;;;;;;5054512;28;20031;-53
2022/09/05 08:41:21;;;;;;;14.52;8.57;;;26.60;67.40;;;;;;5036743;28;20406;-52
2022/09/05 08:44:20;;;;;;;12.95;8.65;;;26.50;66.80;;;;;;5054905;28;20029;-52
2022/09/05 08:47:22;;;;;;;14.48;9.23;;;26.50;67.30;;;;;;5054386;28;20032;-52
2022/09/05 08:50:26;;;;;;;10.20;8.07;;;26.70;66.40;;;;;;5054384;28;20024;-53
2022/09/05 08:53:08;;;;;;;10.38;7.50;;;26.80;66.00;;;;;;5009883;28;20065;-51
2022/09/05 08:55:56;;;;;;;8.30;7.53;;;26.90;65.80;;;;;;5054269;28;20108;-51
2022/09/05 08:58:59;;;;;;;10.98;8.05;;;26.90;65.20;;;;;;5054232;28;20056;-54
2022/09/05 09:01:33;;;;;;;11.48;7.65;;;26.80;65.00;;;;;;5053775;28;20028;-52
2022/09/05 09:04:39;;;;;;;10.82;8.45;;;26.70;65.90;;;;;;5054192;28;20044;-52
2022/09/05 09:07:26;;;;;;;12.88;6.38;;;26.60;66.70;;;;;;5053980;28;20053;-51
2022/09/05 09:09:58;;;;;;;8.73;6.60;;;26.50;65.70;;;;;;5054012;28;20403;-51
2022/09/05 09:13:05;;;;;;;7.05;6.10;;;26.60;65.30;;;;;;5053630;28;20029;-51
2022/09/05 09:15:52;;;;;;;7.18;6.47;;;26.70;64.80;;;;;;5053833;28;20021;-51
2022/09/05 09:18:20;;;;;;;6.82;6.00;;;26.80;64.90;;;;;;5035978;28;20095;-51
2022/09/05 09:20:54;;;;;;;8.75;6.03;;;26.80;64.60;;;;;;5053577;28;20021;-52
2022/09/05 09:23:35;;;;;;;7.28;6.45;;;26.90;64.20;;;;;;5053686;28;20025;-54
2022/09/05 09:26:10;;;;;;;7.13;5.80;;;27.00;63.90;;;;;;5053582;28;20071;-52
2022/09/05 09:28:44;;;;;;;8.70;5.30;;;27.10;64.20;;;;;;5053143;28;20056;-53
2022/09/05 09:31:31;;;;;;;12.38;7.80;;;27.10;63.90;;;;;;5053424;28;20032;-51
2022/09/05 09:34:19;;;;;;;10.38;7.10;;;27.30;63.10;;;;;;5053575;28;20029;-54
2022/09/05 09:37:09;;;;;;;7.28;6.00;;;27.40;62.20;;;;;;5053425;28;20437;-52
2022/09/05 09:40:14;;;;;;;6.63;5.15;;;27.40;62.20;;;;;;5053296;28;20047;-51
2022/09/05 09:43:17;;;;;;;9.07;4.68;;;27.40;60.80;;;;;;5038649;28;20041;-52
2022/09/05 09:46:11;;;;;;;9.27;4.53;;;27.30;59.80;;;;;;4982279;28;20045;-52
2022/09/05 09:49:16;;;;;;;5.47;3.80;;;27.30;62.00;;;;;;5035241;28;20025;-52
2022/09/05 09:52:20;;;;;;;9.32;6.85;;;27.50;61.30;;;;;;5053108;28;20116;-51
2022/09/05 09:55:01;;;;;;;9.35;6.30;;;27.50;61.60;;;;;;5008905;28;20037;-52
2022/09/05 09:57:32;;;;;;;7.47;6.18;;;27.60;61.50;;;;;;5035219;28;20033;-52
2022/09/05 10:00:19;;;;;;;7.90;6.60;;;27.60;61.10;;;;;;5052929;28;20490;-52
2022/09/05 10:03:06;;;;;;;8.67;5.80;;;27.60;59.80;;;;;;5052788;28;20032;-51
2022/09/05 10:05:44;;;;;;;5.40;4.80;;;27.60;60.40;;;;;;5052855;28;20025;-52
2022/09/05 10:08:35;;;;;;;;;;;27.70;60.40;;;;;;5053266;28;20119;-51
2022/09/05 10:11:13;;;;;;;8.75;6.50;;;27.80;59.50;;;;;;5052731;28;19905;-53
2022/09/05 10:14:04;;;;;;;6.38;4.88;;;27.80;59.00;;;;;;5052994;28;20021;-53
2022/09/05 10:17:09;;;;;;;8.45;5.95;;;27.80;60.10;;;;;;5049974;28;20068;-55
2022/09/05 10:19:50;;;;;;;7.30;5.25;;;27.70;58.70;;;;;;5054389;28;20039;-51
2022/09/05 10:22:37;;;;;;;6.82;4.90;;;27.80;60.20;;;;;;5050828;28;20412;-53
2022/09/05 10:25:28;;;;;;;10.38;4.95;;;27.70;59.00;;;;;;5072425;28;20081;-56
2022/09/05 10:28:11;;;;;;;7.68;5.25;;;27.90;60.00;;;;;;5037133;28;20063;-52
2022/09/05 10:30:45;;;;;;;7.43;4.30;;;28.00;57.60;;;;;;5067374;28;20024;-54
2022/09/05 10:33:46;;;;;;;9.75;5.05;;;28.00;59.20;;;;;;5060142;28;20116;-54
2022/09/05 10:36:14;;;;;;;5.53;5.00;;;28.20;59.10;;;;;;5052242;28;20387;-52
2022/09/05 10:38:51;;;;;;;6.30;4.47;;;28.30;58.80;;;;;;5066704;28;20390;-52
2022/09/05 10:41:22;;;;;;;7.47;4.00;;;28.40;58.50;;;;;;5067975;28;20040;-51
2022/09/05 10:44:01;;;;;;;6.55;3.60;;;28.40;56.40;;;;;;5063480;28;20078;-53
2022/09/05 10:46:32;;;;;;;4.85;3.28;;;28.40;57.30;;;;;;5059910;28;20491;-55
2022/09/05 10:49:04;;;;;;;7.35;4.28;;;;;;;;;;5043320;28;20043;-53
2022/09/05 10:51:35;;;;;;;6.00;4.75;;;;;;;;;;5057525;28;20025;-52
2022/09/05 10:54:07;;;;;;;3.47;3.28;;;;;;;;;;5066434;28;20025;-50
2022/09/05 10:56:48;;;;;;;9.63;4.72;;;28.50;58.60;;;;;;5055555;28;20082;-53
2022/09/05 10:59:30;;;;;;;4.88;3.88;;;29.20;58.30;;;;;;5014398;28;20403;-52
2022/09/05 11:02:06;;;;;;;5.72;3.17;;;29.10;55.20;;;;;;5057373;28;20047;-55
2022/09/05 11:04:54;;;;;;;4.13;3.70;;;29.00;55.80;;;;;;5035033;28;20017;-54
2022/09/05 11:08:17;;;;;;;7.28;3.95;;;29.00;55.20;;;;;;5051115;28;20391;-51
2022/09/05 11:10:48;;;;;;;7.43;3.80;;;29.20;55.50;;;;;;4989477;28;20247;-53
2022/09/05 11:13:24;;;;;;;20.08;5.20;;;29.20;55.50;;;;;;4989524;28;20039;-52
2022/09/05 11:15:49;;;;;;;6.07;3.65;;;29.30;55.60;;;;;;5035328;28;20071;-51
2022/09/05 11:18:31;;;;;;;8.53;3.17;;;29.20;55.00;;;;;;5059045;28;20056;-52
2022/09/05 11:21:07;;;;;;;4.20;2.90;;;29.20;55.20;;;;;;5052845;28;20055;-52
2022/09/05 11:23:39;;;;;;;3.90;2.30;;;29.10;53.30;;;;;;5051370;28;20486;-52
2022/09/05 11:26:21;;;;;;;6.55;2.85;;;29.20;53.90;;;;;;5032507;28;20064;-52
2022/09/05 11:28:56;;;;;;;2.65;2.20;;;29.30;53.00;;;;;;5037321;28;20505;-52
2022/09/05 11:31:35;;;;;;;5.20;3.00;;;29.50;52.10;;;;;;5061371;28;20479;-52
2022/09/05 11:34:22;;;;;;;3.67;2.40;;;29.60;50.90;;;;;;5071768;28;20056;-51
2022/09/05 11:36:50;;;;;;;3.42;2.97;;;29.70;50.20;;;;;;5071474;28;20032;-51
2022/09/05 11:39:25;;;;;;;4.03;3.25;;;29.40;50.00;;;;;;5071272;28;20035;-52
2022/09/05 11:42:18;;;;;;;5.43;2.83;;;29.50;51.00;;;;;;5066485;28;20431;-52
2022/09/05 11:45:09;;;;;;;4.50;2.70;;;29.70;52.10;;;;;;5070178;28;20056;-51
2022/09/05 11:47:35;;;;;;;5.97;3.58;;;;;;;;;;5071250;28;20498;-51
2022/09/05 11:50:31;;;;;;;5.28;3.00;;;29.80;51.80;;;;;;5069699;28;20033;-54
2022/09/05 11:53:47;;;;;;;5.50;2.55;;;29.70;50.40;;;;;;5067451;28;20032;-53
2022/09/05 11:56:34;;;;;;;3.92;2.38;;;29.80;50.50;;;;;;5020880;28;20064;-54
2022/09/05 11:59:24;;;;;;;3.50;2.78;;;29.90;50.80;;;;;;5056417;28;20447;-51
2022/09/05 12:02:24;;;;;;;3.58;2.78;;;30.00;51.10;;;;;;5074891;28;20550;-52
2022/09/05 12:05:06;;;;;;;9.68;2.65;;;29.90;50.00;;;;;;5052240;28;20032;-52
2022/09/05 12:07:56;;;;;;;5.72;2.53;;;;;;;;;;5055159;28;20025;-53
2022/09/05 12:10:22;;;;;;;2.83;2.60;;;;;;;;;;5055530;28;20052;-52
2022/09/05 12:12:48;;;;;;;7.38;2.60;;;;;;;;;;5058603;28;20052;-52
2022/09/05 12:15:32;;;;;;;12.77;2.80;;;30.10;50.10;;;;;;5057060;28;20021;-52
2022/09/05 12:18:31;;;;;;;2.92;2.40;;;30.80;50.00;;;;;;5074937;28;20082;-51
2022/09/05 12:21:11;;;;;;;5.68;2.53;;;30.80;50.30;;;;;;5001164;28;20037;-54
2022/09/05 12:24:05;;;;;;;6.05;2.28;;;30.80;48.90;;;;;;5056626;28;20036;-53
2022/09/05 12:26:33;;;;;;;15.27;2.95;;;30.70;48.60;;;;;;5060321;28;20025;-52
2022/09/05 12:29:14;;;;;;;4.22;2.40;;;30.40;48.60;;;;;;5039656;28;20422;-51
2022/09/05 12:31:53;;;;;;;5.57;2.67;;;29.90;50.10;;;;;;5054474;28;20021;-51
2022/09/05 12:34:44;;;;;;;6.72;3.00;;;30.10;50.60;;;;;;5054918;28;20395;-55
2022/09/05 12:37:11;;;;;;;7.22;3.05;;;30.40;49.00;;;;;;5054602;28;20024;-51
2022/09/05 12:39:45;;;;;;;3.78;2.50;;;30.50;49.00;;;;;;5049212;28;20039;-53
2022/09/05 12:42:27;;;;;;;8.15;2.88;;;30.50;49.40;;;;;;5074226;28;20034;-51
2022/09/05 12:45:23;;;;;;;5.25;2.40;;;30.60;49.40;;;;;;5074469;28;20432;-52
2022/09/05 12:48:12;;;;;;;6.65;2.55;;;30.80;48.10;;;;;;5073586;28;20058;-54
2022/09/05 12:50:41;;;;;;;8.55;2.17;;;31.10;49.50;;;;;;5035665;28;20038;-53
2022/09/05 12:53:14;;;;;;;3.78;2.00;;;31.20;48.90;;;;;;5054219;28;20479;-55
2022/09/05 12:56:08;;;;;;;3.25;2.50;;;31.20;47.10;;;;;;5054316;28;20104;-52
2022/09/05 12:58:36;;;;;;;3.70;2.53;;;31.30;46.70;;;;;;5056261;28;20072;-52
2022/09/05 13:01:16;;;;;;;5.35;2.03;;;31.30;48.20;;;;;;5073861;28;20027;-52
2022/09/05 13:03:56;;;;;;;4.20;2.30;;;31.50;46.40;;;;;;5068173;28;20380;-51
2022/09/05 13:06:38;;;;;;;2.30;2.13;;;31.60;46.70;;;;;;5054031;28;20021;-52
2022/09/05 13:09:15;;;;;;;5.38;2.17;;;31.80;47.90;;;;;;5062545;28;20490;-54
2022/09/05 13:12:06;;;;;;;9.20;6.28;;;32.10;47.70;;;;;;5072341;28;20036;-52
2022/09/05 13:15:05;;;;;;;7.28;2.53;;;32.40;46.50;;;;;;5036687;28;20044;-52
2022/09/05 13:17:38;;;;;;;5.35;2.42;;;32.70;45.80;;;;;;5059618;28;20507;-52
2022/09/05 13:20:14;;;;;;;7.55;2.35;;;33.00;45.10;;;;;;5043817;28;20029;-53
2022/09/05 13:22:42;;;;;;;4.85;2.10;;;33.00;45.20;;;;;;5035647;28;20036;-52
2022/09/05 13:25:15;;;;;;;5.60;2.80;;;33.20;45.60;;;;;;5069312;28;20502;-55
2022/09/05 13:27:55;;;;;;;6.35;2.13;;;34.10;44.50;;;;;;5073623;28;20035;-55
2022/09/05 13:30:23;;;;;;;3.30;2.20;;;35.60;43.70;;;;;;5065910;28;20032;-52
2022/09/05 13:33:01;;;;;;;4.10;2.47;;;37.40;40.30;;;;;;5060008;28;20038;-54
2022/09/05 13:35:35;;;;;;;5.53;2.70;;;38.90;36.50;;;;;;5033578;28;20079;-53
2022/09/05 13:38:00;;;;;;;5.93;3.60;;;40.30;36.80;;;;;;5033407;28;20484;-55
2022/09/05 13:40:31;;;;;;;;;;;41.50;34.40;;;;;;5068950;28;20035;-53
2022/09/05 13:43:08;;;;;;;3.85;2.20;;;42.50;32.80;;;;;;5055108;28;20420;-53
2022/09/05 13:47:19;;;;;;;6.43;2.97;;;43.30;29.70;;;;;;5069125;28;20465;-48
2022/09/05 13:49:46;;;;;;;;;;;;;;;;;;5069044;28;20282;-48
2022/09/05 13:52:33;;;;;;;5.60;2.78;;;43.70;29.10;;;;;;5065065;28;19963;-48
2022/09/05 13:55:07;;;;;;;;;;;44.00;29.60;;;;;;5051104;28;20032;-49
2022/09/05 13:57:39;;;;;;;4.72;2.05;;;44.10;29.30;;;;;;5048906;28;19909;-48
2022/09/05 14:00:09;;;;;;;4.25;1.90;;;44.50;29.70;;;;;;5022896;23;20042;-48
2022/09/05 14:03:10;;;;;;;3.88;1.70;;;45.00;29.00;;;;;;5008098;28;20474;-47
2022/09/05 14:05:41;;;;;;;14.45;3.75;;;44.80;27.40;;;;;;5008751;28;20041;-48
2022/09/05 14:08:49;;;;;;;3.00;2.20;;;44.40;29.80;;;;;;5008989;28;20026;-48
2022/09/05 14:11:15;;;;;;;;;;;44.70;28.30;;;;;;4989964;28;20093;-50
2022/09/05 14:14:00;;;;;;;21.48;14.25;;;45.70;29.30;;;;;;4989297;28;20317;-52
2022/09/05 14:16:31;;;;;;;4.85;2.05;;;45.80;28.10;;;;;;4989330;28;20117;-51